Marble Falls, TX

2:59 PM CDT on July 24, 2017 (GMT -0500)
The Waterlands | | Change Station

Elev 837 ft 30.55 °N, 98.35 °W | Updated 11 seconds ago

Mostly Cloudy
Mostly Cloudy
90.0 °F
Feels Like 97 °F
N
0.0
Wind Variable Wind from NNW
Gusts 0.0 mph

Today
High -- | Low -- °F
--% Chance of Precip.
Yesterday
High -- | Low -- °F
Precip. -- in
Pressure 29.97 in
Visibility 10.0 miles
Clouds Scattered Clouds 5500 ft
Scattered Clouds 6500 ft
Scattered Clouds 7500 ft
Heat Index 97 °F
Dew Point 72 °F
Humidity 55%
Rainfall 0.00 in
Snow Depth Not available.
6:46 AM 8:32 PM
Waxing Crescent, 3% visible
METAR KDZB 241955Z AUTO 00000KT 10SM VCTS SCT055 SCT065 SCT075 33/21 A2997 RMK AO2 LTG DSNT ALQS T03300210
Pressure 29.97 in
Visibility 10.0 miles
Clouds Scattered Clouds 5500 ft
Scattered Clouds 6500 ft
Scattered Clouds 7500 ft
Heat Index 97 °F
Dew Point 72 °F
Humidity 55%
Rainfall 0.00 in
Snow Depth Not available.
6:46 AM 8:32 PM
Waxing Crescent, 3% visible
METAR KDZB 241955Z AUTO 00000KT 10SM VCTS SCT055 SCT065 SCT075 33/21 A2997 RMK AO2 LTG DSNT ALQS T03300210

Get Severe Weather Alerts

Thanks for signing up!

Be on the lookout for a verification email in your inbox.

You'll start receiving the daily forecast at 6 AM.

×

10-Day Weather Forecast

Almanac

Astronomy

Jul. 24, 2017 Rise Set
Actual Time
Civil Twilight
Nautical Twilight
Astronomical Twilight
Moon
Length of Visible Light
Length of Day
Tomorrow will be .
, % of the Moon is Illuminated

Today's Extremes

State Highs State Lows

Community

WunderPhotos

Category 6

Welcome to Category 6. This is the collective home for Weather Underground's featured writeups by Dr. Jeff Masters (right), Bob Henson (left), Chris Burt, and other regular contributors.

Nearby

Air Quality

  Air Quality AQ Index Pollutant
Not available.

Snow Depth

Station Depth Elevation

Earthquake Activity

City Distance Mag. Time & Date
Minimum magnitude displayed is 2.5.

Coastal Water Temperatures

Place Temperature

Stations

Nearby Weather Stations

Station Location Temp. Windchill Dew Point Humidity Wind Precip. Elev Updated Type
                   

Watches & Warnings

There are currently no watches in effect.